createdAt,value
2023-01-11T00:02:02.792Z,17.05
2023-01-11T00:04:30.619Z,13.15
2023-01-11T00:06:58.280Z,16.38
2023-01-11T00:09:25.204Z,11.20
2023-01-11T00:11:52.314Z,23.13
2023-01-11T00:14:19.200Z,16.88
2023-01-11T00:16:46.088Z,10.57
2023-01-11T00:19:13.362Z,16.10
2023-01-11T00:21:40.371Z,22.67
2023-01-11T00:24:07.482Z,13.13
2023-01-11T00:26:34.384Z,12.52
2023-01-11T00:29:01.291Z,11.80
2023-01-11T00:31:28.289Z,6.60
2023-01-11T00:33:55.466Z,12.63
2023-01-11T00:36:22.388Z,7.93
2023-01-11T00:38:53.958Z,7.18
2023-01-11T00:41:41.464Z,10.68
2023-01-11T00:44:29.409Z,9.95
2023-01-11T00:47:15.612Z,9.60
2023-01-11T00:49:43.334Z,10.50
2023-01-11T00:52:10.832Z,14.95
2023-01-11T00:54:39.910Z,8.85
2023-01-11T00:57:08.232Z,11.75
2023-01-11T00:59:37.004Z,9.18
2023-01-11T01:02:04.430Z,10.55
2023-01-11T01:04:31.555Z,10.30
2023-01-11T01:06:58.548Z,14.32
2023-01-11T01:09:25.566Z,7.45
2023-01-11T01:11:52.604Z,7.47
2023-01-11T01:14:26.098Z,4.60
2023-01-11T01:16:54.180Z,7.07
2023-01-11T01:19:22.519Z,5.10
2023-01-11T01:21:50.838Z,7.22
2023-01-11T01:24:18.153Z,6.00
2023-01-11T01:26:45.099Z,5.05
2023-01-11T01:29:12.997Z,8.82
2023-01-11T01:31:40.729Z,6.03
2023-01-11T01:34:09.195Z,5.30
2023-01-11T01:36:36.276Z,12.07
2023-01-11T01:39:04.946Z,14.40
2023-01-11T01:41:32.148Z,6.18
2023-01-11T01:44:01.541Z,11.48
2023-01-11T01:46:30.868Z,9.88
2023-01-11T01:49:16.543Z,9.10
2023-01-11T01:51:50.668Z,10.75
2023-01-11T01:54:23.926Z,11.25
2023-01-11T01:56:56.281Z,9.60
2023-01-11T01:59:26.250Z,12.50
2023-01-11T02:01:53.586Z,11.18
2023-01-11T02:04:25.072Z,6.00
2023-01-11T02:07:04.423Z,10.43
2023-01-11T02:09:57.479Z,8.32
2023-01-11T02:12:26.237Z,7.70
2023-01-11T02:14:55.130Z,10.00
2023-01-11T02:17:22.038Z,9.13
2023-01-11T02:20:21.661Z,11.20
2023-01-11T02:23:10.179Z,9.15
2023-01-11T02:26:19.174Z,11.80
2023-01-11T02:29:11.655Z,11.27
2023-01-11T02:31:49.002Z,9.20
2023-01-11T02:34:43.644Z,10.68
2023-01-11T02:37:13.680Z,9.52
2023-01-11T02:39:43.416Z,6.25
2023-01-11T02:42:57.252Z,11.10
2023-01-11T02:45:42.544Z,12.73
2023-01-11T02:48:52.605Z,9.65
2023-01-11T02:51:30.658Z,6.38
2023-01-11T02:54:04.345Z,8.30
2023-01-11T02:56:37.255Z,7.53
2023-01-11T02:59:07.970Z,8.25
2023-01-11T03:01:47.351Z,7.05
2023-01-11T03:04:30.706Z,9.85
2023-01-11T03:07:09.220Z,7.28
2023-01-11T03:09:49.062Z,8.30
2023-01-11T03:12:46.317Z,12.30
2023-01-11T03:15:21.894Z,11.85
2023-01-11T03:18:09.641Z,13.43
2023-01-11T03:20:41.961Z,8.38
2023-01-11T03:23:29.404Z,13.50
2023-01-11T03:25:59.304Z,6.43
2023-01-11T03:28:58.413Z,8.77
2023-01-11T03:31:38.317Z,16.48
2023-01-11T03:34:14.463Z,11.85
2023-01-11T03:36:52.516Z,8.57
2023-01-11T03:39:31.984Z,9.55
2023-01-11T03:42:02.900Z,9.32
2023-01-11T03:44:35.122Z,11.82
2023-01-11T03:47:07.179Z,12.65
2023-01-11T03:49:39.703Z,10.80
2023-01-11T03:52:09.973Z,13.68
2023-01-11T03:54:37.597Z,13.23
2023-01-11T03:57:20.139Z,12.90
2023-01-11T03:59:47.194Z,9.15
2023-01-11T04:02:22.559Z,8.23
2023-01-11T04:04:49.735Z,9.30
2023-01-11T04:07:16.964Z,11.20
2023-01-11T04:09:43.868Z,10.65
2023-01-11T04:12:11.196Z,8.73
2023-01-11T04:14:38.327Z,8.05
2023-01-11T04:17:05.236Z,8.85
2023-01-11T04:19:32.176Z,9.45
2023-01-11T04:21:59.186Z,14.40
2023-01-11T04:24:26.183Z,8.00
2023-01-11T04:26:53.063Z,5.50
2023-01-11T04:29:19.960Z,10.88
2023-01-11T04:31:46.935Z,7.05
2023-01-11T04:34:14.029Z,10.35
2023-01-11T04:36:41.365Z,15.90
2023-01-11T04:39:11.026Z,6.45
2023-01-11T04:41:57.416Z,5.55
2023-01-11T04:44:25.286Z,7.88
2023-01-11T04:46:52.304Z,3.95
2023-01-11T04:49:19.264Z,9.15
2023-01-11T04:51:46.157Z,6.70
2023-01-11T04:54:13.113Z,8.90
2023-01-11T04:56:40.042Z,5.88
2023-01-11T04:59:07.128Z,8.10
2023-01-11T05:01:34.060Z,7.93
2023-01-11T05:04:01.142Z,7.95
2023-01-11T05:06:28.097Z,11.63
2023-01-11T05:08:55.060Z,10.27
2023-01-11T05:11:22.174Z,12.63
2023-01-11T05:13:49.098Z,13.90
2023-01-11T05:16:21.486Z,8.77
2023-01-11T05:18:56.639Z,15.07
2023-01-11T05:21:26.393Z,10.93
2023-01-11T05:23:54.133Z,7.38
2023-01-11T05:26:23.811Z,13.10
2023-01-11T05:28:51.830Z,8.85
2023-01-11T05:31:19.262Z,11.40
2023-01-11T05:33:46.396Z,11.50
2023-01-11T05:36:16.501Z,10.50
2023-01-11T05:38:45.678Z,10.00
2023-01-11T05:41:13.190Z,17.95
2023-01-11T05:43:58.865Z,9.27
2023-01-11T05:46:27.270Z,8.80
2023-01-11T05:48:57.361Z,9.32
2023-01-11T05:51:24.288Z,6.88
2023-01-11T05:53:53.061Z,9.25
2023-01-11T05:56:20.380Z,9.68
2023-01-11T05:58:51.899Z,9.15
2023-01-11T06:01:21.071Z,6.03
2023-01-11T06:03:48.314Z,9.88
2023-01-11T06:06:16.788Z,14.88
2023-01-11T06:08:43.695Z,5.70
2023-01-11T06:11:10.575Z,4.28
2023-01-11T06:13:37.618Z,4.45
2023-01-11T06:16:14.513Z,3.72
2023-01-11T06:18:49.445Z,4.88
2023-01-11T06:21:17.889Z,7.13
2023-01-11T06:23:47.324Z,4.50
2023-01-11T06:26:16.797Z,3.40
2023-01-11T06:28:44.556Z,3.42
2023-01-11T06:31:11.838Z,3.42
2023-01-11T06:33:39.134Z,4.22
2023-01-11T06:36:08.527Z,4.38
2023-01-11T06:38:36.198Z,3.80
2023-01-11T06:41:05.605Z,2.88
2023-01-11T06:43:32.856Z,7.15
2023-01-11T06:46:00.279Z,6.20
2023-01-11T06:48:27.924Z,7.28
2023-01-11T06:50:56.904Z,8.75
2023-01-11T06:53:28.121Z,8.02
2023-01-11T06:55:57.825Z,6.95
2023-01-11T06:58:26.358Z,6.38
2023-01-11T07:00:55.656Z,9.77
2023-01-11T07:03:24.514Z,9.13
2023-01-11T07:05:53.121Z,9.35
2023-01-11T07:08:20.797Z,8.00
2023-01-11T07:10:47.915Z,10.30
2023-01-11T07:13:18.743Z,7.57
2023-01-11T07:15:48.580Z,9.75
2023-01-11T07:18:15.813Z,12.77
2023-01-11T07:20:42.745Z,13.50
2023-01-11T07:23:10.935Z,6.95
2023-01-11T07:25:38.220Z,10.30
2023-01-11T07:28:07.218Z,8.65
2023-01-11T07:30:51.859Z,8.18
2023-01-11T07:33:23.568Z,10.52
2023-01-11T07:35:50.615Z,10.65
2023-01-11T07:38:17.481Z,8.02
2023-01-11T07:40:44.445Z,10.27
2023-01-11T07:43:15.319Z,9.75
2023-01-11T07:45:46.434Z,10.73
2023-01-11T07:48:14.937Z,9.75
2023-01-11T07:50:44.855Z,9.07
2023-01-11T07:53:13.305Z,10.75
2023-01-11T07:55:41.370Z,9.63
2023-01-11T07:58:15.251Z,7.05
2023-01-11T08:00:42.307Z,7.55
2023-01-11T08:03:10.182Z,11.32
2023-01-11T08:05:37.699Z,12.27
2023-01-11T08:08:05.941Z,10.48
2023-01-11T08:10:33.877Z,13.38
2023-01-11T08:13:20.574Z,9.13
2023-01-11T08:15:47.575Z,14.95
2023-01-11T08:18:14.552Z,12.35
2023-01-11T08:20:41.689Z,14.80
2023-01-11T08:23:10.429Z,14.30
2023-01-11T08:25:37.586Z,17.02
2023-01-11T08:28:07.173Z,17.48
2023-01-11T08:30:35.177Z,16.92
2023-01-11T08:33:02.790Z,12.77
2023-01-11T08:35:30.922Z,10.43
2023-01-11T08:37:58.066Z,12.70
2023-01-11T08:40:25.732Z,10.52
2023-01-11T08:42:57.186Z,11.27
2023-01-11T08:45:24.555Z,10.48
2023-01-11T08:47:52.389Z,11.38
2023-01-11T08:50:20.842Z,14.82
2023-01-11T08:52:51.102Z,10.65
2023-01-11T08:55:21.679Z,12.20
2023-01-11T08:57:48.685Z,11.90
2023-01-11T09:00:16.209Z,14.32
2023-01-11T09:02:45.417Z,13.73
2023-01-11T09:05:12.543Z,14.93
2023-01-11T09:07:39.483Z,12.40
2023-01-11T09:10:06.910Z,18.65
2023-01-11T09:12:33.884Z,13.13
2023-01-11T09:15:00.938Z,11.68
2023-01-11T09:17:28.241Z,12.85
2023-01-11T09:19:55.233Z,11.95
2023-01-11T09:22:22.279Z,11.65
2023-01-11T09:24:49.355Z,13.80
2023-01-11T09:27:16.752Z,13.80
2023-01-11T09:29:43.924Z,16.60
2023-01-11T09:32:10.862Z,13.35
2023-01-11T09:34:38.029Z,12.68
2023-01-11T09:37:07.040Z,17.75
2023-01-11T09:39:35.333Z,12.25
2023-01-11T09:42:29.538Z,14.88
2023-01-11T10:18:27.585Z,8.67
2023-01-11T10:20:35.572Z,10.02
2023-01-11T10:23:08.517Z,13.38
2023-01-11T10:25:46.611Z,15.50
2023-01-11T10:28:36.033Z,17.02
2023-01-11T10:31:29.771Z,19.27
2023-01-11T10:34:21.088Z,16.90
2023-01-11T10:37:00.934Z,13.02
2023-01-11T10:39:40.039Z,14.85
2023-01-11T10:42:21.944Z,14.00
2023-01-11T10:44:55.100Z,17.77
2023-01-11T10:47:27.946Z,21.05
2023-01-11T10:50:00.482Z,20.63
2023-01-11T10:52:32.789Z,21.77
2023-01-11T10:55:03.145Z,19.08
2023-01-11T10:57:59.309Z,24.23
2023-01-11T11:00:37.503Z,19.83
2023-01-11T11:03:32.057Z,15.35
2023-01-11T11:06:20.811Z,17.20
2023-01-11T11:09:16.689Z,19.77
2023-01-11T11:12:08.193Z,13.57
2023-01-11T11:14:51.742Z,15.95
2023-01-11T11:17:38.250Z,15.75
2023-01-11T11:20:17.989Z,19.55
2023-01-11T11:22:47.645Z,17.92
2023-01-11T11:25:16.915Z,16.92
2023-01-11T11:27:51.192Z,16.70
2023-01-11T11:30:38.586Z,14.05
2023-01-11T11:33:23.650Z,19.20
2023-01-11T11:36:04.859Z,14.88
2023-01-11T11:38:34.653Z,16.15
2023-01-11T11:41:08.693Z,14.85
2023-01-11T11:43:43.525Z,15.18
2023-01-11T11:46:25.259Z,16.30
2023-01-11T11:49:12.685Z,14.13
2023-01-11T11:51:41.316Z,15.00
2023-01-11T11:54:17.989Z,15.13
2023-01-11T11:56:45.087Z,15.85
2023-01-11T11:59:18.163Z,15.90
2023-01-11T12:01:48.535Z,16.45
2023-01-11T12:04:24.561Z,15.93
2023-01-11T12:07:12.068Z,12.85
2023-01-11T12:09:48.701Z,13.65
2023-01-11T12:15:09.198Z,10.85
2023-01-11T12:17:37.112Z,14.80
2023-01-11T12:20:23.989Z,12.43
2023-01-11T12:23:08.539Z,13.82
2023-01-11T12:26:01.435Z,16.88
2023-01-11T12:28:55.355Z,16.33
2023-01-11T12:31:43.489Z,14.75
2023-01-11T12:34:19.532Z,11.68
2023-01-11T12:37:01.544Z,15.20
2023-01-11T12:39:51.724Z,16.42
2023-01-11T12:42:42.986Z,15.60
2023-01-11T12:45:38.961Z,13.20
2023-01-11T12:48:11.534Z,12.88
2023-01-11T12:50:41.365Z,14.52
2023-01-11T12:53:34.069Z,21.73
2023-01-11T12:56:03.561Z,12.05
2023-01-11T12:58:44.962Z,11.45
2023-01-11T13:01:34.784Z,17.65
2023-01-11T13:04:20.431Z,19.10
2023-01-11T13:07:05.501Z,11.02
2023-01-11T13:09:38.049Z,11.95
2023-01-11T13:12:29.917Z,10.63
2023-01-11T13:15:22.633Z,15.48
2023-01-11T13:18:19.371Z,12.30
2023-01-11T13:21:10.692Z,8.57
2023-01-11T13:23:53.492Z,14.90
2023-01-11T13:26:34.251Z,11.15
2023-01-11T13:29:23.897Z,12.10
2023-01-11T13:31:52.845Z,9.30
2023-01-11T13:34:44.711Z,11.68
2023-01-11T13:37:20.203Z,6.15
2023-01-11T13:39:57.463Z,9.07
2023-01-11T13:42:30.929Z,5.93
2023-01-11T13:45:35.808Z,7.82
2023-01-11T13:48:59.456Z,3.65
2023-01-11T13:51:29.167Z,5.53
2023-01-11T13:54:05.398Z,7.32
2023-01-11T13:56:36.720Z,4.80
2023-01-11T13:59:07.946Z,4.88
2023-01-11T14:01:37.922Z,5.03
2023-01-11T14:04:10.189Z,5.47
2023-01-11T14:06:55.534Z,4.07
2023-01-11T14:09:51.709Z,10.15
2023-01-11T14:12:27.491Z,3.95
2023-01-11T14:15:20.339Z,4.60
2023-01-11T14:18:09.430Z,3.88
2023-01-11T14:21:13.390Z,5.20
2023-01-11T14:23:51.077Z,4.93
2023-01-11T14:27:04.353Z,4.07
2023-01-11T14:30:00.062Z,6.78
2023-01-11T14:32:45.767Z,4.88
2023-01-11T14:35:41.095Z,3.30
2023-01-11T14:38:32.381Z,2.40
2023-01-11T14:41:23.226Z,4.35
2023-01-11T14:44:20.349Z,4.93
2023-01-11T14:47:14.438Z,6.20
2023-01-11T14:49:57.984Z,6.28
2023-01-11T14:52:39.577Z,3.75
2023-01-11T14:55:20.307Z,2.38
2023-01-11T14:58:17.642Z,4.63
2023-01-11T15:00:44.542Z,3.15
2023-01-11T15:03:11.335Z,4.30
2023-01-11T15:05:46.692Z,4.38
2023-01-11T15:08:13.517Z,5.63
2023-01-11T15:10:59.894Z,3.53
2023-01-11T15:13:35.240Z,3.95
2023-01-11T15:16:40.395Z,4.60
2023-01-11T15:19:11.081Z,2.72
2023-01-11T15:21:47.890Z,2.92
2023-01-11T15:24:25.749Z,2.42
2023-01-11T15:26:54.065Z,3.70
2023-01-11T15:29:32.753Z,1.60
2023-01-11T15:32:02.341Z,1.48
2023-01-11T15:34:43.064Z,3.05
2023-01-11T15:37:31.131Z,1.23
2023-01-11T15:40:04.097Z,0.73
2023-01-11T15:42:49.690Z,0.82
2023-01-11T15:45:25.222Z,1.55
2023-01-11T15:48:31.727Z,1.08
2023-01-11T15:51:25.470Z,1.35
2023-01-11T15:54:29.521Z,1.77
2023-01-11T15:57:16.831Z,1.40
2023-01-11T16:00:08.276Z,1.38
2023-01-11T16:02:54.139Z,2.80
2023-01-11T16:05:26.255Z,3.10
2023-01-11T16:08:15.108Z,3.22
2023-01-11T16:11:03.835Z,2.20
2023-01-11T16:13:33.745Z,1.95
2023-01-11T16:16:19.528Z,1.27
2023-01-11T16:19:11.179Z,3.65
2023-01-11T16:21:41.082Z,2.53
2023-01-11T16:24:10.220Z,2.53
2023-01-11T16:26:40.342Z,4.57
2023-01-11T16:29:12.795Z,3.03
2023-01-11T16:32:00.120Z,4.95
2023-01-11T16:34:39.397Z,3.47
2023-01-11T16:37:27.762Z,2.63
2023-01-11T16:40:03.019Z,4.32
2023-01-11T16:42:34.635Z,3.05
2023-01-11T16:45:06.659Z,4.75
2023-01-11T16:47:33.869Z,6.38
2023-01-11T16:50:28.534Z,6.70
2023-01-11T16:52:59.519Z,4.30
2023-01-11T16:55:30.174Z,3.60
2023-01-11T16:58:00.693Z,3.80
2023-01-11T17:00:36.229Z,4.78
2023-01-11T17:03:21.862Z,3.25
2023-01-11T17:06:08.175Z,3.03
2023-01-11T17:08:36.332Z,6.27
2023-01-11T17:11:34.262Z,2.65
2023-01-11T17:14:19.240Z,2.60
2023-01-11T17:17:02.950Z,4.22
2023-01-11T17:19:43.249Z,6.30
2023-01-11T17:22:22.307Z,3.75
2023-01-11T17:24:59.863Z,4.07
2023-01-11T17:27:35.701Z,2.83
2023-01-11T17:30:05.384Z,2.83
2023-01-11T17:32:38.803Z,5.07
2023-01-11T17:35:14.892Z,5.03
2023-01-11T17:37:45.384Z,7.80
2023-01-11T17:40:35.511Z,8.43
2023-01-11T17:43:30.436Z,9.00
2023-01-11T17:45:58.973Z,7.05
2023-01-11T17:48:27.454Z,7.15
2023-01-11T17:51:00.208Z,7.32
2023-01-11T17:53:29.855Z,7.05
2023-01-11T17:55:59.008Z,4.57
2023-01-11T17:58:39.163Z,5.85
2023-01-11T18:01:07.810Z,7.43
2023-01-11T18:03:52.959Z,7.10
2023-01-11T18:06:35.148Z,5.30
2023-01-11T18:09:06.578Z,7.25
2023-01-11T18:11:36.146Z,7.03
2023-01-11T18:14:06.210Z,7.32
2023-01-11T18:16:33.586Z,11.43
2023-01-11T18:19:01.039Z,8.90
2023-01-11T18:22:03.075Z,4.75
2023-01-11T18:24:34.118Z,5.75
2023-01-11T18:27:31.631Z,8.52
2023-01-11T18:32:38.572Z,5.03
2023-01-11T18:35:16.915Z,8.35
2023-01-11T18:37:45.305Z,5.63
2023-01-11T18:40:14.220Z,5.18
2023-01-11T18:42:41.407Z,5.82
2023-01-11T18:45:11.430Z,7.13
2023-01-11T18:47:38.457Z,7.93
2023-01-11T18:50:08.386Z,6.32
2023-01-11T18:52:37.425Z,6.65
2023-01-11T18:55:07.126Z,8.00
2023-01-11T18:57:34.101Z,6.82
2023-01-11T19:00:00.970Z,5.13
2023-01-11T19:02:33.366Z,5.85
2023-01-11T19:05:00.401Z,7.05
2023-01-11T19:07:27.492Z,9.07
2023-01-11T19:09:55.072Z,6.13
2023-01-11T19:12:23.523Z,4.80
2023-01-11T19:14:50.476Z,5.90
2023-01-11T19:17:17.484Z,5.32
2023-01-11T19:19:44.547Z,9.70
2023-01-11T19:22:12.217Z,8.00
2023-01-11T19:24:39.914Z,6.00
2023-01-11T19:27:07.008Z,6.93
2023-01-11T19:29:34.119Z,12.18
2023-01-11T19:32:01.101Z,8.05
2023-01-11T19:34:28.036Z,6.15
2023-01-11T19:36:54.935Z,8.38
2023-01-11T19:39:21.883Z,7.20
2023-01-11T19:41:54.573Z,8.35
2023-01-11T19:44:22.335Z,5.80
2023-01-11T19:46:56.763Z,5.72
2023-01-11T19:49:27.707Z,8.63
2023-01-11T19:51:54.744Z,10.57
2023-01-11T19:54:22.243Z,6.55
2023-01-11T19:56:52.102Z,4.75
2023-01-11T19:59:20.067Z,5.20
2023-01-11T20:01:48.294Z,7.30
2023-01-11T20:04:16.472Z,6.63
2023-01-11T20:06:50.685Z,6.25
2023-01-11T20:09:22.137Z,6.63
2023-01-11T20:11:49.563Z,11.73
2023-01-11T20:14:17.106Z,7.00
2023-01-11T20:16:44.033Z,6.55
2023-01-11T20:19:11.717Z,10.45
2023-01-11T20:21:38.668Z,9.27
2023-01-11T20:24:06.743Z,6.97
2023-01-11T20:26:36.610Z,8.70
2023-01-11T20:29:05.724Z,10.30
2023-01-11T20:31:35.388Z,10.45
2023-01-11T20:34:10.911Z,14.90
2023-01-11T20:36:38.217Z,10.18
2023-01-11T20:39:05.663Z,10.60
2023-01-11T20:41:47.992Z,11.88
2023-01-11T20:44:21.742Z,13.82
2023-01-11T20:46:48.815Z,13.20
2023-01-11T20:49:16.963Z,11.55
2023-01-11T20:51:45.305Z,12.85
2023-01-11T20:54:12.935Z,13.77
2023-01-11T20:56:40.940Z,9.93
2023-01-11T20:59:09.431Z,14.25
2023-01-11T21:01:37.419Z,15.90
2023-01-11T21:04:09.743Z,9.57
2023-01-11T21:06:39.990Z,14.50
2023-01-11T21:09:08.183Z,12.00
2023-01-11T21:11:35.866Z,10.55
2023-01-11T21:14:04.644Z,15.05
2023-01-11T21:16:32.029Z,5.50
2023-01-11T21:19:01.413Z,12.20
2023-01-11T21:21:31.976Z,7.78
2023-01-11T21:24:01.908Z,12.25
2023-01-11T21:26:29.606Z,9.05
2023-01-11T21:29:01.701Z,11.57
2023-01-11T21:31:31.191Z,11.57
2023-01-11T21:33:59.470Z,13.18
2023-01-11T21:36:28.594Z,10.82
2023-01-11T21:38:56.889Z,8.68
2023-01-11T21:41:52.779Z,5.57
2023-01-11T21:44:21.544Z,9.70
2023-01-11T21:46:49.930Z,10.75
2023-01-11T21:49:17.573Z,7.63
2023-01-11T21:51:44.556Z,8.35
2023-01-11T21:54:13.518Z,6.40
2023-01-11T21:56:42.089Z,6.25
2023-01-11T21:59:09.679Z,9.25
2023-01-11T22:01:38.609Z,7.93
2023-01-11T22:04:10.768Z,10.00
2023-01-11T22:06:42.355Z,4.70
2023-01-11T22:09:11.696Z,5.30
2023-01-11T22:11:39.662Z,5.60
2023-01-11T22:14:08.694Z,4.63
2023-01-11T22:16:37.435Z,3.17
2023-01-11T22:19:07.476Z,4.50
2023-01-11T22:21:35.858Z,7.97
2023-01-11T22:24:03.136Z,2.72
2023-01-11T22:26:38.709Z,9.07
2023-01-11T22:29:12.901Z,2.60
2023-01-11T22:31:44.709Z,2.88
2023-01-11T22:34:13.858Z,7.38
2023-01-11T22:36:41.690Z,2.22
2023-01-11T22:39:08.702Z,5.47
2023-01-11T22:41:35.653Z,6.13
2023-01-11T22:44:02.885Z,3.78
2023-01-11T22:46:30.033Z,3.50
2023-01-11T22:48:56.969Z,7.13
2023-01-11T22:51:25.356Z,4.90
2023-01-11T22:53:53.900Z,5.63
2023-01-11T22:56:25.680Z,3.92
2023-01-11T22:58:53.938Z,3.83
2023-01-11T23:01:29.981Z,5.85
2023-01-11T23:03:58.075Z,4.03
2023-01-11T23:06:30.556Z,7.20
2023-01-11T23:08:58.043Z,3.13
2023-01-11T23:11:48.853Z,5.88
2023-01-11T23:14:19.863Z,16.02
2023-01-11T23:16:48.655Z,4.20
2023-01-11T23:19:17.856Z,9.45
2023-01-11T23:21:45.454Z,4.45
2023-01-11T23:24:14.246Z,4.88
2023-01-11T23:26:41.487Z,47.58
2023-01-11T23:29:08.586Z,16.67
2023-01-11T23:31:35.589Z,31.67
2023-01-11T23:34:04.017Z,6.80
2023-01-11T23:36:33.916Z,12.35
2023-01-11T23:39:01.382Z,9.05
2023-01-11T23:41:47.383Z,22.85
2023-01-11T23:44:15.861Z,13.75
2023-01-11T23:47:02.199Z,7.57
2023-01-11T23:49:30.994Z,21.95
2023-01-11T23:51:58.550Z,7.10
2023-01-11T23:54:30.621Z,6.20
2023-01-11T23:56:58.745Z,8.73
2023-01-11T23:59:26.086Z,4.78
